Global Triumph — V7DU5 — position and weather

sailwx.info

Track history (hours):
 
Tides and Currents Weather Stations Pressure Air Temp Water Temp Dewpoint Dewpoint Depression Visibility Wind Speed Wind Dir Waves Ship Positions

Global Triumph

Last reported at 2016-Jul-26 18:32 UTC. Time now 2016-Jul-28 08:40 UTC.
Position N 25°57' W 115°33'.

Length 225 m; draft 6.9 m.

Type: Cargo ship. MMSI: 538001709.

Date/timePositionNaut miles runAvg speedWind from/ knotsBaromVisibWave heightAir tempDewpointWater temp
2016-Jul-26 18:32N 25°57' W 115°33'2018.9
2016-Jul-26 17:29N 26°11' W 115°49'6218.6
2016-Jul-26 14:08N 26°51' W 116°42'1618.8
2016-Jul-26 13:17N 27°01' W 116°56'1418.7
2016-Jul-26 12:33N 27°10' W 117°08'1918.6
2016-Jul-26 11:33N 27°22' W 117°25'2718.4
2016-Jul-26 10:04N 27°37' W 117°50'17618.4
2016-Jul-26 00:30N 29°28' W 120°25'1818.4
2016-Jul-25 23:33N 29°39' W 120°42'1818.5
2016-Jul-25 22:33N 29°50' W 120°58'4118.3
2016-Jul-25 20:18N 30°16' W 121°36'3218.3
2016-Jul-25 18:32N 30°36' W 122°05'1818.3
2016-Jul-25 17:33N 30°47' W 122°22'2218.2
2016-Jul-25 16:22N 31°00' W 122°42'1518.1
2016-Jul-25 15:33N 31°10' W 122°55'1818.2
2016-Jul-25 14:33N 31°22' W 123°11'1818.2
2016-Jul-25 13:33N 31°34' W 123°27'2118.2
2016-Jul-25 12:23N 31°48' W 123°46'1618.1
2016-Jul-25 11:31N 31°59' W 123°59'1918.2
2016-Jul-25 10:28N 32°11' W 124°16'1618.1
2016-Jul-25 09:33N 32°21' W 124°32'3917.9
2016-Jul-25 07:21N 32°44' W 125°10'2117.8
2016-Jul-25 06:09N 32°56' W 125°31'1117.9
2016-Jul-25 05:33N 33°02' W 125°41'2417.8
2016-Jul-25 04:11N 33°16' W 126°05'4817.8
2016-Jul-25 01:31N 33°43' W 126°52'9118.0
2016-Jul-24 20:26N 34°40' W 128°18'1618.2
2016-Jul-24 19:33N 34°50' W 128°34'1818.0
2016-Jul-24 18:33N 34°60' W 128°52'2018.2
2016-Jul-24 17:29N 35°11' W 129°12'  
Track history (hours):
 
Tides and Currents Weather Stations Pressure Air Temp Water Temp Dewpoint Dewpoint Depression Visibility Wind Speed Wind Dir Waves Ship Positions

Global Triumph

Last reported at 2016-Jul-26 18:32 UTC. Time now 2016-Jul-28 08:40 UTC.
Position N 25°57' W 115°33'.

Length 225 m; draft 6.9 m.

Type: Cargo ship. MMSI: 538001709.

Date/timePositionNaut miles runAvg speedWind from/ knotsBaromVisibWave heightAir tempDewpointWater temp
2016-Jul-26 18:32N 25°57' W 115°33'2018.9
2016-Jul-26 17:29N 26°11' W 115°49'6218.6
2016-Jul-26 14:08N 26°51' W 116°42'1618.8
2016-Jul-26 13:17N 27°01' W 116°56'1418.7
2016-Jul-26 12:33N 27°10' W 117°08'1918.6
2016-Jul-26 11:33N 27°22' W 117°25'2718.4
2016-Jul-26 10:04N 27°37' W 117°50'17618.4
2016-Jul-26 00:30N 29°28' W 120°25'1818.4
2016-Jul-25 23:33N 29°39' W 120°42'1818.5
2016-Jul-25 22:33N 29°50' W 120°58'4118.3
2016-Jul-25 20:18N 30°16' W 121°36'3218.3
2016-Jul-25 18:32N 30°36' W 122°05'1818.3
2016-Jul-25 17:33N 30°47' W 122°22'2218.2
2016-Jul-25 16:22N 31°00' W 122°42'1518.1
2016-Jul-25 15:33N 31°10' W 122°55'1818.2
2016-Jul-25 14:33N 31°22' W 123°11'1818.2
2016-Jul-25 13:33N 31°34' W 123°27'2118.2
2016-Jul-25 12:23N 31°48' W 123°46'1618.1
2016-Jul-25 11:31N 31°59' W 123°59'1918.2
2016-Jul-25 10:28N 32°11' W 124°16'1618.1
2016-Jul-25 09:33N 32°21' W 124°32'3917.9
2016-Jul-25 07:21N 32°44' W 125°10'2117.8
2016-Jul-25 06:09N 32°56' W 125°31'1117.9
2016-Jul-25 05:33N 33°02' W 125°41'2417.8
2016-Jul-25 04:11N 33°16' W 126°05'4817.8
2016-Jul-25 01:31N 33°43' W 126°52'9118.0
2016-Jul-24 20:26N 34°40' W 128°18'1618.2
2016-Jul-24 19:33N 34°50' W 128°34'1818.0
2016-Jul-24 18:33N 34°60' W 128°52'2018.2
2016-Jul-24 17:29N 35°11' W 129°12'  

Dump ship's entire track history